Time;durP1;ratioP1;P1;durP2;ratioP2;P2;SDS_P1;SDS_P2;PMS_P1;PMS_P2;Temp;Humidity;BMP_temperature;BMP_pressure;BME280_temperature;BME280_humidity;BME280_pressure;Samples;Min_cycle;Max_cycle;Signal;HPM_P1;HPM_P2
2023/01/24 00:00:56;;;;;;;2.25;2.05;;;20.00;35.00;;;;;;5065127;28;20040;-46
2023/01/24 00:03:23;;;;;;;4.97;2.60;;;20.00;35.10;;;;;;5064815;28;20131;-48
2023/01/24 00:05:50;;;;;;;2.67;1.58;;;20.00;35.10;;;;;;5064498;28;20053;-44
2023/01/24 00:08:19;;;;;;;1.50;1.40;;;19.90;35.10;;;;;;5065276;28;20521;-49
2023/01/24 00:10:47;;;;;;;1.95;1.30;;;19.90;35.10;;;;;;5064947;28;20072;-48
2023/01/24 00:13:15;;;;;;;5.28;2.28;;;19.90;35.20;;;;;;5065088;28;20209;-49
2023/01/24 00:15:44;;;;;;;3.47;1.48;;;19.90;35.20;;;;;;5063801;28;20158;-44
2023/01/24 00:18:11;;;;;;;5.65;1.50;;;19.80;35.50;;;;;;5063157;28;20049;-48
2023/01/24 00:20:38;;;;;;;4.13;1.42;;;19.90;35.60;;;;;;5063607;28;20048;-48
2023/01/24 00:23:05;;;;;;;5.70;1.67;;;19.80;35.60;;;;;;5064595;28;20151;-46
2023/01/24 00:25:32;;;;;;;5.38;2.22;;;19.80;35.70;;;;;;5063999;28;20131;-48
2023/01/24 00:27:59;;;;;;;5.60;2.53;;;19.80;35.70;;;;;;5064318;28;20694;-47
2023/01/24 00:30:26;;;;;;;7.53;1.42;;;19.70;35.70;;;;;;5045492;28;20045;-47
2023/01/24 00:32:54;;;;;;;6.57;1.95;;;19.70;35.70;;;;;;5044664;28;20505;-45
2023/01/24 00:35:21;;;;;;;3.53;2.65;;;19.70;35.70;;;;;;5058442;28;20047;-47
2023/01/24 00:37:48;;;;;;;17.70;3.65;;;19.60;35.70;;;;;;5064150;28;20528;-47
2023/01/24 00:40:16;;;;;;;6.78;2.75;;;19.60;35.70;;;;;;5038243;28;20497;-48
2023/01/24 00:42:44;;;;;;;2.95;2.08;;;19.60;35.90;;;;;;5044495;28;20072;-47
2023/01/24 00:45:12;;;;;;;4.50;2.50;;;19.50;35.70;;;;;;5046834;28;20059;-45
2023/01/24 00:47:39;;;;;;;3.50;2.13;;;19.50;35.50;;;;;;5062884;28;20083;-47
2023/01/24 00:50:08;;;;;;;4.03;1.42;;;19.50;35.70;;;;;;5056488;28;20040;-46
2023/01/24 00:52:35;;;;;;;2.58;1.48;;;19.50;35.80;;;;;;5064533;28;20144;-46
2023/01/24 00:55:02;;;;;;;3.85;2.00;;;19.40;35.60;;;;;;5062753;28;20057;-44
2023/01/24 00:57:29;;;;;;;5.43;2.08;;;19.40;35.70;;;;;;5063084;28;20480;-46
2023/01/24 00:59:57;;;;;;;3.25;1.83;;;19.40;35.70;;;;;;5071018;28;20044;-48
2023/01/24 01:02:24;;;;;;;3.22;2.92;;;19.40;35.70;;;;;;5069361;28;20143;-48
2023/01/24 01:04:51;;;;;;;4.25;2.45;;;19.30;35.70;;;;;;5069430;28;20051;-46
2023/01/24 01:07:20;;;;;;;3.28;1.77;;;19.30;35.70;;;;;;5071018;28;20599;-44
2023/01/24 01:09:47;;;;;;;5.97;2.63;;;19.20;35.70;;;;;;5069115;28;20041;-44
2023/01/24 01:12:14;;;;;;;2.58;1.95;;;19.20;35.70;;;;;;5050863;28;20075;-49
2023/01/24 01:14:41;;;;;;;3.25;1.77;;;19.20;35.70;;;;;;5049462;28;20049;-47
2023/01/24 01:17:08;;;;;;;2.05;1.95;;;19.10;35.80;;;;;;5049409;28;20131;-45
2023/01/24 01:19:35;;;;;;;1.90;1.60;;;19.10;36.40;;;;;;5055725;28;20508;-46
2023/01/24 01:22:03;;;;;;;1.20;1.02;;;19.10;35.90;;;;;;5070943;28;20059;-44
2023/01/24 01:24:31;;;;;;;2.03;1.52;;;19.10;36.00;;;;;;5069686;28;20102;-50
2023/01/24 01:26:58;;;;;;;1.77;1.55;;;19.00;36.10;;;;;;5073103;28;20046;-44
2023/01/24 01:29:26;;;;;;;5.30;2.20;;;19.00;36.20;;;;;;5072369;28;20493;-45
2023/01/24 01:31:53;;;;;;;6.97;2.38;;;19.00;36.80;;;;;;5050571;28;20033;-46
2023/01/24 01:34:20;;;;;;;1.73;1.63;;;18.90;36.30;;;;;;5056180;28;20551;-46
2023/01/24 01:36:47;;;;;;;2.67;2.15;;;18.90;36.40;;;;;;5071066;28;20037;-48
2023/01/24 01:39:14;;;;;;;2.85;2.28;;;18.80;36.50;;;;;;5070992;28;20048;-46
2023/01/24 01:41:42;;;;;;;4.43;1.98;;;18.80;36.60;;;;;;5071175;28;20444;-48
2023/01/24 01:47:25;;;;;;;2.83;1.65;;;18.80;37.00;;;;;;5071435;28;20127;-46
2023/01/24 01:50:02;;;;;;;2.55;2.13;;;18.70;37.00;;;;;;5069751;28;20125;-45
2023/01/24 01:52:35;;;;;;;3.38;2.13;;;18.70;37.20;;;;;;5071096;28;20516;-46
2023/01/24 01:55:07;;;;;;;2.42;1.85;;;18.70;37.40;;;;;;5070840;28;20063;-45
2023/01/24 01:57:37;;;;;;;3.92;1.85;;;18.60;37.40;;;;;;5060538;28;20049;-48
2023/01/24 02:00:12;;;;;;;1.83;1.73;;;18.60;37.60;;;;;;5049312;28;20417;-47
2023/01/24 02:02:41;;;;;;;4.85;2.13;;;18.60;37.70;;;;;;5051015;28;20044;-46
2023/01/24 02:05:11;;;;;;;2.55;2.15;;;18.60;37.70;;;;;;5062833;28;20131;-47
2023/01/24 02:07:44;;;;;;;2.55;2.33;;;18.60;37.80;;;;;;5071007;28;20041;-45
2023/01/24 02:10:12;;;;;;;2.08;1.98;;;18.50;37.80;;;;;;5068155;28;20132;-47
2023/01/24 02:12:44;;;;;;;2.55;2.28;;;18.60;37.90;;;;;;5067791;28;20048;-46
2023/01/24 02:17:59;;;;;;;2.42;2.33;;;18.50;38.10;;;;;;5068144;28;20040;-48
2023/01/24 02:20:37;;;;;;;2.42;2.22;;;18.50;38.20;;;;;;5067177;28;20400;-47
2023/01/24 02:23:16;;;;;;;2.35;2.25;;;18.50;38.40;;;;;;5066287;28;20406;-45
2023/01/24 02:25:48;;;;;;;2.97;2.20;;;18.40;38.50;;;;;;5067289;28;20044;-50
2023/01/24 02:28:18;;;;;;;2.25;2.10;;;18.40;38.50;;;;;;5065885;28;20119;-46
2023/01/24 02:30:46;;;;;;;2.50;1.77;;;18.40;38.60;;;;;;5067494;28;20654;-47
2023/01/24 02:33:15;;;;;;;2.75;2.55;;;18.30;38.70;;;;;;5066032;28;20036;-45
2023/01/24 02:35:43;;;;;;;3.35;1.75;;;18.30;38.80;;;;;;5065338;28;20063;-45
2023/01/24 02:38:17;;;;;;;2.22;1.98;;;18.40;38.90;;;;;;5067613;28;20123;-47
2023/01/24 02:40:45;;;;;;;2.65;2.45;;;18.40;39.00;;;;;;5066118;28;20055;-47
2023/01/24 02:43:14;;;;;;;2.88;2.67;;;18.30;39.00;;;;;;5065345;28;20114;-46
2023/01/24 02:45:43;;;;;;;2.72;2.53;;;18.30;39.10;;;;;;5065786;28;20049;-45
2023/01/24 02:48:10;;;;;;;2.17;2.03;;;18.30;39.20;;;;;;5051998;28;20053;-45
2023/01/24 02:53:30;;;;;;;2.80;2.60;;;18.20;39.20;;;;;;5065576;28;20060;-47
2023/01/24 02:58:43;;;;;;;3.80;3.50;;;18.20;39.30;;;;;;5066650;28;20117;-46
2023/01/24 03:01:14;;;;;;;2.88;2.65;;;18.20;39.50;;;;;;5065878;28;20036;-48
2023/01/24 03:03:42;;;;;;;3.00;2.15;;;18.20;39.50;;;;;;5062934;28;20032;-45
2023/01/24 03:06:10;;;;;;;2.13;1.98;;;18.10;39.60;;;;;;5064727;28;20059;-46
2023/01/24 03:08:38;;;;;;;2.15;1.95;;;18.10;39.60;;;;;;5066423;28;20040;-45
2023/01/24 03:11:13;;;;;;;1.67;1.58;;;18.10;39.70;;;;;;5064873;28;20040;-45
2023/01/24 03:35:54;;;;;;;4.15;2.15;;;18.00;40.40;;;;;;5061982;28;20512;-46
2023/01/24 03:41:10;;;;;;;2.38;2.15;;;17.90;40.40;;;;;;5064414;28;20929;-44
2023/01/24 03:43:39;;;;;;;1.60;1.50;;;17.90;40.40;;;;;;5064447;28;20220;-46
2023/01/24 03:46:06;;;;;;;2.22;2.03;;;17.90;40.40;;;;;;5063933;28;20041;-45
2023/01/24 03:49:00;;;;;;;2.92;2.55;;;17.90;40.60;;;;;;5064470;28;20114;-46
2023/01/24 03:54:17;;;;;;;2.03;1.90;;;17.90;40.60;;;;;;5076471;28;20045;-48
2023/01/24 03:57:13;;;;;;;2.92;2.53;;;17.90;40.70;;;;;;5058489;28;20045;-49
2023/01/24 03:59:40;;;;;;;4.00;2.50;;;17.80;40.70;;;;;;5063764;28;20052;-45
2023/01/24 04:02:08;;;;;;;2.03;1.85;;;17.80;40.70;;;;;;5065453;28;20051;-44
2023/01/24 04:07:27;;;;;;;3.90;2.17;;;17.80;41.40;;;;;;5050285;28;20045;-44
2023/01/24 04:09:57;;;;;;;2.83;2.58;;;17.80;40.90;;;;;;5027615;28;20072;-45
2023/01/24 04:12:24;;;;;;;2.63;1.90;;;17.80;40.80;;;;;;5045491;28;20846;-45
2023/01/24 04:14:52;;;;;;;2.15;1.95;;;17.80;40.80;;;;;;5044036;28;20041;-44
2023/01/24 04:17:19;;;;;;;3.88;2.28;;;17.80;40.80;;;;;;5045282;28;20049;-49
2023/01/24 04:19:52;;;;;;;2.30;2.10;;;17.80;40.80;;;;;;5034410;28;20043;-47
2023/01/24 04:22:20;;;;;;;2.70;1.65;;;17.80;40.90;;;;;;5063772;28;20045;-45
2023/01/24 04:24:47;;;;;;;2.67;2.08;;;17.80;41.00;;;;;;5063369;28;20575;-45
2023/01/24 04:27:15;;;;;;;1.88;1.77;;;17.80;41.00;;;;;;5063778;28;20049;-45
2023/01/24 04:30:00;;;;;;;2.55;2.40;;;17.80;41.00;;;;;;5049642;28;20055;-46
2023/01/24 04:32:29;;;;;;;2.67;2.38;;;17.80;41.10;;;;;;5043217;28;20128;-45
2023/01/24 04:35:06;;;;;;;3.72;1.83;;;17.80;41.20;;;;;;5054778;28;20090;-47
2023/01/24 04:37:50;;;;;;;2.20;2.00;;;17.70;41.10;;;;;;5080543;28;20151;-48
2023/01/24 04:40:29;;;;;;;2.65;2.30;;;17.70;41.20;;;;;;5063093;28;20098;-45
2023/01/24 04:42:57;;;;;;;3.88;2.53;;;17.70;41.40;;;;;;5060599;28;20074;-48
2023/01/24 04:45:24;;;;;;;2.85;2.45;;;17.70;41.50;;;;;;5044000;28;20044;-50
2023/01/24 04:47:51;;;;;;;3.40;2.55;;;17.70;41.60;;;;;;5043851;28;20501;-51
2023/01/24 04:50:20;;;;;;;3.15;2.90;;;17.70;41.60;;;;;;5054309;28;20149;-48
2023/01/24 04:52:47;;;;;;;2.63;2.35;;;17.70;41.60;;;;;;5063548;28;20051;-45
2023/01/24 04:55:15;;;;;;;3.03;2.13;;;17.70;41.60;;;;;;5062636;28;20071;-48
2023/01/24 04:57:43;;;;;;;3.22;2.95;;;17.80;41.70;;;;;;5044555;28;20444;-44
2023/01/24 05:00:11;;;;;;;3.28;2.45;;;17.80;41.70;;;;;;5043438;28;20068;-47
2023/01/24 05:02:39;;;;;;;2.65;1.80;;;17.80;41.70;;;;;;5043033;28;20040;-50
2023/01/24 05:05:08;;;;;;;2.55;1.98;;;17.70;41.70;;;;;;5058580;28;20107;-46
2023/01/24 05:07:36;;;;;;;2.97;2.65;;;17.80;41.80;;;;;;5080217;28;20413;-47
2023/01/24 05:10:11;;;;;;;1.95;1.65;;;17.70;41.70;;;;;;5063620;28;20583;-45
2023/01/24 05:12:38;;;;;;;4.38;2.88;;;17.70;41.70;;;;;;5064564;28;20132;-50
2023/01/24 05:15:12;;;;;;;3.10;2.10;;;17.70;41.70;;;;;;5063297;28;20122;-46
2023/01/24 05:17:39;;;;;;;2.90;1.92;;;17.70;41.70;;;;;;5063318;28;20051;-46
2023/01/24 05:20:07;;;;;;;2.72;1.75;;;17.70;41.60;;;;;;5063270;28;20532;-47
2023/01/24 05:22:37;;;;;;;3.03;2.60;;;17.70;41.60;;;;;;5064584;28;20044;-48
2023/01/24 05:25:04;;;;;;;4.47;2.60;;;17.70;41.70;;;;;;5064585;28;20044;-47
2023/01/24 05:27:33;;;;;;;1.50;1.38;;;17.70;41.70;;;;;;5063300;28;20076;-47
2023/01/24 05:30:04;;;;;;;3.15;2.30;;;17.70;41.80;;;;;;5057316;28;20645;-45
2023/01/24 05:32:31;;;;;;;3.05;2.58;;;17.70;41.80;;;;;;5079261;28;20055;-47
2023/01/24 05:34:58;;;;;;;2.25;1.98;;;17.70;41.90;;;;;;5062765;28;20580;-45
2023/01/24 05:37:26;;;;;;;4.13;2.30;;;17.70;41.80;;;;;;5062479;28;20118;-48
2023/01/24 05:39:54;;;;;;;7.25;2.40;;;17.70;41.90;;;;;;5064764;28;20516;-44
2023/01/24 05:42:21;;;;;;;3.47;3.17;;;17.70;42.00;;;;;;5063200;28;20447;-45
2023/01/24 05:44:51;;;;;;;2.53;2.28;;;17.80;42.70;;;;;;5064598;28;20524;-46
2023/01/24 05:47:18;;;;;;;3.70;2.63;;;17.70;42.10;;;;;;5066537;28;20513;-45
2023/01/24 05:49:47;;;;;;;2.72;2.35;;;17.70;42.10;;;;;;5066841;28;20068;-44
2023/01/24 05:52:18;;;;;;;2.60;2.05;;;17.70;42.10;;;;;;5066261;28;20045;-46
2023/01/24 05:54:52;;;;;;;3.30;3.03;;;17.70;42.10;;;;;;5066417;28;20053;-45
2023/01/24 05:57:33;;;;;;;4.13;2.05;;;17.70;42.00;;;;;;5066583;28;20521;-46
2023/01/24 06:00:13;;;;;;;3.28;2.97;;;17.70;42.00;;;;;;5056718;28;20037;-46
2023/01/24 06:03:01;;;;;;;2.10;1.63;;;17.70;42.00;;;;;;5046686;28;20041;-44
2023/01/24 06:05:29;;;;;;;4.45;2.67;;;17.70;42.10;;;;;;5061204;28;20258;-45
2023/01/24 06:07:56;;;;;;;3.33;2.05;;;17.70;42.10;;;;;;5067434;28;20122;-48
2023/01/24 06:10:23;;;;;;;3.53;3.10;;;17.70;42.10;;;;;;5066271;28;20090;-48
2023/01/24 06:13:01;;;;;;;2.22;1.98;;;17.70;42.10;;;;;;5066536;28;20044;-47
2023/01/24 06:15:29;;;;;;;3.60;1.83;;;17.70;42.10;;;;;;5064918;28;20063;-47
2023/01/24 06:17:56;;;;;;;2.45;2.25;;;17.70;42.10;;;;;;5065029;28;20032;-48
2023/01/24 06:20:24;;;;;;;3.95;1.80;;;17.70;42.10;;;;;;5065166;28;20060;-46
2023/01/24 06:22:53;;;;;;;2.97;2.22;;;17.70;42.00;;;;;;5065258;28;20066;-48
2023/01/24 06:25:24;;;;;;;5.03;3.03;;;17.70;42.10;;;;;;5082239;28;20044;-51
2023/01/24 06:27:52;;;;;;;3.75;2.20;;;17.70;42.00;;;;;;5066801;28;20076;-46
2023/01/24 06:30:21;;;;;;;4.45;2.40;;;17.70;42.10;;;;;;5050119;28;20045;-46
2023/01/24 06:33:06;;;;;;;6.38;3.38;;;17.70;42.10;;;;;;5046806;28;20120;-45
2023/01/24 06:35:40;;;;;;;3.67;1.73;;;17.70;42.00;;;;;;5060445;28;20072;-46
2023/01/24 06:38:18;;;;;;;3.22;1.60;;;17.70;42.00;;;;;;5066898;28;20467;-45
2023/01/24 06:40:45;;;;;;;2.42;2.22;;;17.70;42.00;;;;;;5066683;28;20536;-47
2023/01/24 06:43:13;;;;;;;4.45;2.40;;;17.70;41.90;;;;;;5065357;28;20152;-48
2023/01/24 06:45:42;;;;;;;2.88;1.63;;;17.70;41.90;;;;;;5065559;28;20572;-46
2023/01/24 06:48:09;;;;;;;2.47;2.17;;;17.70;41.90;;;;;;5058006;28;20044;-49
2023/01/24 06:50:36;;;;;;;2.40;2.15;;;17.70;41.90;;;;;;5045821;28;20041;-46
2023/01/24 06:53:03;;;;;;;2.88;2.35;;;17.70;41.80;;;;;;5046370;28;20057;-46
2023/01/24 06:55:31;;;;;;;2.30;2.20;;;17.70;41.80;;;;;;5064866;28;20064;-47
2023/01/24 06:57:59;;;;;;;3.08;2.13;;;17.70;41.80;;;;;;5065675;28;20557;-46
2023/01/24 07:00:28;;;;;;;3.22;2.92;;;17.70;41.90;;;;;;5066286;28;20437;-47
2023/01/24 07:03:00;;;;;;;3.33;2.67;;;17.70;41.80;;;;;;5065634;28;20050;-45
2023/01/24 07:05:28;;;;;;;3.78;1.90;;;17.70;41.80;;;;;;5066079;28;20404;-49
2023/01/24 07:07:56;;;;;;;4.43;2.97;;;17.70;41.90;;;;;;5064002;28;20039;-48
2023/01/24 07:10:23;;;;;;;3.10;2.72;;;17.70;41.90;;;;;;5046431;28;20048;-46
2023/01/24 07:12:50;;;;;;;3.10;2.83;;;17.70;42.00;;;;;;5046236;28;20646;-46
2023/01/24 07:15:17;;;;;;;2.58;2.38;;;17.70;42.00;;;;;;5046118;28;20134;-48
2023/01/24 07:17:45;;;;;;;2.75;2.10;;;17.70;42.00;;;;;;5046538;28;20461;-45
2023/01/24 07:20:14;;;;;;;5.22;2.97;;;17.70;42.10;;;;;;5045803;28;20060;-45
2023/01/24 07:22:43;;;;;;;6.85;2.30;;;17.70;42.10;;;;;;5045923;28;20519;-45
2023/01/24 07:25:14;;;;;;;3.17;2.88;;;17.70;42.10;;;;;;5045748;28;20044;-49
2023/01/24 07:27:42;;;;;;;2.45;1.92;;;17.70;42.10;;;;;;5046135;28;20771;-47
2023/01/24 07:30:10;;;;;;;3.78;3.38;;;17.70;42.10;;;;;;5055261;28;20032;-45
2023/01/24 07:32:38;;;;;;;2.83;2.30;;;17.70;42.20;;;;;;5065828;28;20117;-46
2023/01/24 07:35:06;;;;;;;4.32;3.00;;;17.70;42.20;;;;;;5065535;28;20127;-45
2023/01/24 07:37:35;;;;;;;3.22;2.90;;;17.70;42.10;;;;;;5065655;28;20102;-48
2023/01/24 07:40:02;;;;;;;4.72;3.63;;;17.70;42.10;;;;;;5064744;28;20052;-48
2023/01/24 07:42:29;;;;;;;3.95;3.28;;;17.70;42.10;;;;;;5065835;28;20102;-49
2023/01/24 07:44:58;;;;;;;2.80;2.55;;;17.70;42.10;;;;;;5065743;28;20569;-47
2023/01/24 07:47:26;;;;;;;4.70;3.15;;;17.70;42.10;;;;;;5065349;28;20075;-46
2023/01/24 07:49:53;;;;;;;3.92;3.00;;;17.70;42.10;;;;;;5065492;28;20054;-48
2023/01/24 07:52:20;;;;;;;4.38;3.80;;;17.70;42.10;;;;;;5051974;28;20664;-45
2023/01/24 07:54:48;;;;;;;6.43;3.05;;;17.80;42.20;;;;;;5062823;28;20050;-47
2023/01/24 07:57:16;;;;;;;3.63;3.28;;;17.70;42.10;;;;;;5072663;28;20036;-47
2023/01/24 07:59:43;;;;;;;5.20;3.13;;;17.80;42.20;;;;;;5065533;28;20527;-48
2023/01/24 08:02:11;;;;;;;5.07;3.42;;;17.70;42.10;;;;;;5065277;28;20489;-45
2023/01/24 08:04:39;;;;;;;3.90;3.53;;;17.80;42.30;;;;;;5057164;28;20458;-44
2023/01/24 08:07:18;;;;;;;4.88;3.85;;;17.80;42.40;;;;;;5045012;28;20107;-46
2023/01/24 08:09:48;;;;;;;10.45;4.15;;;17.80;42.40;;;;;;5044885;28;20041;-46
2023/01/24 08:12:16;;;;;;;6.60;3.42;;;17.80;42.30;;;;;;5061160;28;20094;-47
2023/01/24 08:14:43;;;;;;;4.18;3.30;;;17.80;42.30;;;;;;5065037;28;20155;-47
2023/01/24 08:17:11;;;;;;;3.72;3.35;;;17.80;42.30;;;;;;5064540;28;20060;-46
2023/01/24 08:19:39;;;;;;;3.38;2.72;;;17.80;42.20;;;;;;5065208;28;20072;-44
2023/01/24 08:22:06;;;;;;;10.60;4.60;;;17.80;42.20;;;;;;5065564;28;20048;-49
2023/01/24 08:24:34;;;;;;;3.45;3.10;;;17.80;42.10;;;;;;5065008;28;20149;-45
2023/01/24 08:27:05;;;;;;;4.00;3.28;;;17.70;42.00;;;;;;5065221;28;20052;-46
2023/01/24 08:29:33;;;;;;;5.45;3.90;;;17.80;42.10;;;;;;5054676;28;20048;-49
2023/01/24 08:32:00;;;;;;;17.20;5.82;;;17.80;41.90;;;;;;5062754;28;20033;-53
2023/01/24 08:34:29;;;;;;;8.38;5.55;;;17.80;41.80;;;;;;5064952;28;20520;-50
2023/01/24 08:36:56;;;;;;;13.02;5.03;;;17.80;41.70;;;;;;5064774;28;20048;-53
2023/01/24 08:39:24;;;;;;;10.63;5.95;;;17.80;41.80;;;;;;5065257;28;20040;-51
2023/01/24 08:41:51;;;;;;;6.72;5.38;;;17.80;41.80;;;;;;5065219;28;20041;-52
2023/01/24 08:44:19;;;;;;;6.43;5.63;;;17.90;41.70;;;;;;5081617;28;20036;-54
2023/01/24 08:46:47;;;;;;;5.93;5.40;;;17.90;41.50;;;;;;5084637;28;20491;-55
2023/01/24 08:49:14;;;;;;;9.13;6.55;;;17.90;41.40;;;;;;5065181;28;20040;-60
2023/01/24 08:51:42;;;;;;;13.07;6.60;;;18.00;41.10;;;;;;5064592;28;20090;-55
2023/01/24 08:54:09;;;;;;;8.65;6.72;;;18.00;41.00;;;;;;5059116;28;20538;-58
2023/01/24 08:56:36;;;;;;;6.60;5.95;;;18.10;40.80;;;;;;5065086;28;20734;-49
2023/01/24 08:59:03;;;;;;;7.60;6.22;;;18.10;40.50;;;;;;5063836;28;20055;-52
2023/01/24 09:01:33;;;;;;;7.95;7.15;;;18.20;40.50;;;;;;5065032;28;20068;-50
2023/01/24 09:04:00;;;;;;;11.07;7.47;;;18.20;40.30;;;;;;5063419;28;20045;-48
2023/01/24 09:06:28;;;;;;;11.13;8.15;;;18.30;40.30;;;;;;5054915;28;20056;-50
2023/01/24 09:08:55;;;;;;;8.45;6.93;;;18.30;40.20;;;;;;5045094;28;20052;-50
2023/01/24 09:11:23;;;;;;;7.18;6.43;;;18.30;40.20;;;;;;5053848;28;20049;-49
2023/01/24 09:13:50;;;;;;;6.60;5.97;;;18.30;40.20;;;;;;5065092;28;20040;-47
2023/01/24 09:16:17;;;;;;;11.45;7.53;;;18.40;40.50;;;;;;5064527;28;20044;-48
2023/01/24 09:18:46;;;;;;;9.70;6.28;;;18.40;40.40;;;;;;5063701;28;20045;-51
2023/01/24 09:21:13;;;;;;;5.72;4.88;;;18.50;40.40;;;;;;5066959;28;20579;-50
2023/01/24 09:23:40;;;;;;;7.90;5.88;;;18.50;41.00;;;;;;5069017;28;20513;-49
2023/01/24 09:26:07;;;;;;;6.95;5.82;;;18.50;40.30;;;;;;5069039;28;20047;-43
2023/01/24 09:28:34;;;;;;;8.00;5.07;;;18.60;40.20;;;;;;5066451;28;20513;-49
2023/01/24 09:31:02;;;;;;;5.60;5.07;;;18.70;40.20;;;;;;5055830;28;20041;-47
2023/01/24 09:33:29;;;;;;;7.10;4.30;;;18.70;40.30;;;;;;5067389;28;20137;-50
2023/01/24 09:36:00;;;;;;;5.82;5.32;;;18.80;40.30;;;;;;5068277;28;20037;-51
2023/01/24 09:38:30;;;;;;;5.78;4.22;;;18.80;40.30;;;;;;5068303;28;20084;-49
2023/01/24 09:41:06;;;;;;;6.88;5.80;;;18.80;40.30;;;;;;5068514;28;20089;-51
2023/01/24 09:43:53;;;;;;;5.70;5.20;;;18.80;39.90;;;;;;5068542;28;20475;-48
2023/01/24 09:46:25;;;;;;;;;;;18.80;39.60;;;;;;5067457;28;20615;-59
2023/01/24 09:48:59;;;;;;;7.80;6.75;;;18.80;39.90;;;;;;5068099;28;20050;-56
2023/01/24 09:51:31;;;;;;;6.90;5.38;;;18.80;39.40;;;;;;5067766;28;20059;-49
2023/01/24 09:54:02;;;;;;;12.55;6.07;;;18.90;39.30;;;;;;5067991;28;20072;-48
2023/01/24 09:56:36;;;;;;;6.05;5.22;;;19.00;39.20;;;;;;5058381;28;20053;-51
2023/01/24 09:59:22;;;;;;;7.53;6.50;;;19.00;38.80;;;;;;5048235;28;20055;-50
2023/01/24 10:01:52;;;;;;;6.95;6.22;;;19.00;38.60;;;;;;5048067;28;20468;-47
2023/01/24 10:04:27;;;;;;;7.10;5.20;;;19.00;38.60;;;;;;5053211;28;20151;-46
2023/01/24 10:07:16;;;;;;;5.90;5.13;;;19.00;38.50;;;;;;5067888;28;20132;-47
2023/01/24 10:09:59;;;;;;;5.35;4.82;;;19.00;38.50;;;;;;5068005;28;20398;-46
2023/01/24 10:12:44;;;;;;;6.07;5.45;;;19.10;38.60;;;;;;5067652;28;20695;-46
2023/01/24 10:15:28;;;;;;;5.95;5.05;;;19.10;38.60;;;;;;5067510;28;20051;-51
2023/01/24 10:18:19;;;;;;;6.13;5.05;;;19.10;38.10;;;;;;5067208;28;20084;-47
2023/01/24 10:20:59;;;;;;;6.97;5.88;;;19.20;38.30;;;;;;5079423;28;20040;-55
2023/01/24 10:23:31;;;;;;;6.25;5.18;;;19.30;38.20;;;;;;5087277;28;20097;-48
2023/01/24 10:26:02;;;;;;;9.77;6.45;;;19.30;38.30;;;;;;5087379;28;20424;-46
2023/01/24 10:28:35;;;;;;;6.82;6.13;;;19.30;37.90;;;;;;5083753;28;20044;-49
2023/01/24 10:31:09;;;;;;;7.75;6.72;;;19.40;37.90;;;;;;5047149;28;20041;-50
2023/01/24 10:33:44;;;;;;;7.13;5.50;;;19.40;37.80;;;;;;5066946;28;20048;-51
2023/01/24 10:36:17;;;;;;;8.68;5.40;;;19.40;37.80;;;;;;5046782;28;20059;-49
2023/01/24 10:38:46;;;;;;;9.40;6.13;;;19.40;37.80;;;;;;5053674;28;20137;-51
2023/01/24 10:41:20;;;;;;;16.30;5.63;;;19.40;38.40;;;;;;5066487;28;20134;-52
2023/01/24 10:43:54;;;;;;;10.40;7.53;;;19.50;37.90;;;;;;5065473;28;20098;-50
2023/01/24 10:46:39;;;;;;;23.13;9.50;;;19.40;36.90;;;;;;5066911;28;20045;-45
2023/01/24 10:49:11;;;;;;;16.20;10.85;;;19.30;36.10;;;;;;5066769;28;20416;-39
2023/01/24 10:51:38;;;;;;;15.77;7.82;;;19.10;35.80;;;;;;5066697;28;20159;-57
2023/01/24 10:54:20;;;;;;;10.52;8.07;;;19.00;35.70;;;;;;5066700;28;20112;-51
2023/01/24 10:56:48;;;;;;;16.88;8.90;;;18.90;35.10;;;;;;5066227;28;20063;-56
2023/01/24 10:59:16;;;;;;;12.45;8.70;;;18.80;35.00;;;;;;5049184;28;20041;-48
2023/01/24 11:01:47;;;;;;;12.55;9.77;;;18.80;34.80;;;;;;5048928;28;20073;-49
2023/01/24 11:04:20;;;;;;;10.70;8.95;;;18.70;34.40;;;;;;5051668;28;20060;-50
2023/01/24 11:06:48;;;;;;;14.82;9.23;;;18.60;34.30;;;;;;5066737;28;20591;-51
2023/01/24 11:09:19;;;;;;;13.63;10.13;;;18.50;34.20;;;;;;5066596;28;20051;-47
2023/01/24 11:11:50;;;;;;;16.98;10.68;;;18.50;34.10;;;;;;5066532;28;20047;-48
2023/01/24 11:14:21;;;;;;;13.52;9.45;;;18.40;34.10;;;;;;5066605;28;20052;-51
2023/01/24 11:16:50;;;;;;;13.45;9.70;;;18.40;34.10;;;;;;5066527;28;20048;-48
2023/01/24 11:19:28;;;;;;;13.98;10.95;;;18.30;34.10;;;;;;5066326;28;20136;-46
2023/01/24 11:21:57;;;;;;;15.07;10.52;;;18.30;34.00;;;;;;5066266;28;20139;-50
2023/01/24 11:24:27;;;;;;;12.77;10.00;;;18.20;34.00;;;;;;5066470;28;20040;-47
2023/01/24 11:26:59;;;;;;;15.30;10.60;;;18.10;34.60;;;;;;5065839;28;20094;-47
2023/01/24 11:29:26;;;;;;;14.77;10.13;;;18.10;34.00;;;;;;5066231;28;20572;-47
2023/01/24 11:31:56;;;;;;;16.08;11.35;;;17.90;33.90;;;;;;5065953;28;20048;-47
2023/01/24 11:34:53;;;;;;;13.32;10.73;;;17.90;34.60;;;;;;5066062;28;20127;-54
2023/01/24 11:37:52;;;;;;;13.05;9.23;;;17.80;34.00;;;;;;5060942;28;20063;-52
2023/01/24 11:40:30;;;;;;;10.80;9.30;;;17.70;34.20;;;;;;5066035;28;20053;-51
2023/01/24 11:43:11;;;;;;;16.02;10.48;;;17.70;34.30;;;;;;5065648;28;20044;-49
2023/01/24 11:45:56;;;;;;;12.75;9.13;;;17.60;34.30;;;;;;5065968;28;20041;-54
2023/01/24 11:48:31;;;;;;;14.38;9.80;;;17.60;34.40;;;;;;5062569;28;20495;-48
2023/01/24 11:51:09;;;;;;;13.27;9.73;;;17.60;34.50;;;;;;5065974;28;20072;-44
2023/01/24 11:53:49;;;;;;;17.45;10.10;;;17.60;34.40;;;;;;5065450;28;20118;-42
2023/01/24 11:56:26;;;;;;;12.55;7.85;;;17.50;34.50;;;;;;5065416;28;20048;-46
2023/01/24 11:59:27;;;;;;;13.80;9.68;;;17.50;34.50;;;;;;5065849;28;20143;-45
2023/01/24 12:02:08;;;;;;;11.80;8.80;;;17.40;34.40;;;;;;5065398;28;20084;-46
2023/01/24 12:05:05;;;;;;;15.90;8.98;;;17.30;34.70;;;;;;5065282;28;20068;-48
2023/01/24 12:07:37;;;;;;;;;;;17.30;34.80;;;;;;5057097;28;20052;-42
2023/01/24 12:10:17;;;;;;;11.23;8.75;;;17.20;35.00;;;;;;5065388;28;19928;-42
2023/01/24 12:12:52;;;;;;;10.77;7.90;;;17.20;35.00;;;;;;5065333;28;20143;-41
2023/01/24 12:15:44;;;;;;;12.27;9.45;;;17.20;35.00;;;;;;5065276;28;20037;-42
2023/01/24 12:18:40;;;;;;;13.65;9.95;;;17.20;34.90;;;;;;5065021;28;20093;-46
2023/01/24 12:21:09;;;;;;;9.02;7.63;;;17.20;35.00;;;;;;5065303;28;20377;-45
2023/01/24 12:23:43;;;;;;;11.93;8.68;;;17.10;35.20;;;;;;5064832;28;20051;-42
2023/01/24 12:26:16;;;;;;;11.60;9.80;;;17.20;35.20;;;;;;5065104;28;20123;-50
2023/01/24 12:28:54;;;;;;;12.63;8.82;;;17.10;35.20;;;;;;5060028;28;20051;-45
2023/01/24 12:31:31;;;;;;;13.55;9.43;;;17.20;35.30;;;;;;5048584;28;20040;-44
2023/01/24 12:34:04;;;;;;;10.48;7.43;;;17.20;35.20;;;;;;5064742;28;20076;-49
2023/01/24 12:36:40;;;;;;;8.40;7.15;;;17.20;35.60;;;;;;5065041;28;20695;-56
2023/01/24 12:39:15;;;;;;;8.25;6.82;;;17.30;36.40;;;;;;5064891;28;20052;-53
2023/01/24 12:41:47;;;;;;;6.55;5.13;;;17.50;36.70;;;;;;5065065;28;20052;-53
2023/01/24 12:44:26;;;;;;;7.30;5.28;;;17.80;36.90;;;;;;5066406;28;20149;-54
2023/01/24 12:47:17;;;;;;;6.70;4.95;;;18.10;37.10;;;;;;5085171;28;20060;-55
2023/01/24 12:49:53;;;;;;;5.60;4.78;;;18.40;36.90;;;;;;5085123;28;20235;-53
2023/01/24 12:52:26;;;;;;;5.82;4.50;;;18.70;36.90;;;;;;5084543;28;20052;-55
2023/01/24 12:54:57;;;;;;;3.97;3.33;;;19.00;36.90;;;;;;5070172;28;20525;-52
2023/01/24 12:57:28;;;;;;;4.25;3.63;;;19.30;36.80;;;;;;5064518;28;20508;-52
2023/01/24 12:59:57;;;;;;;5.53;4.18;;;19.50;36.70;;;;;;5063731;28;20090;-46
2023/01/24 13:03:06;;;;;;;4.50;3.53;;;19.80;36.60;;;;;;5064755;28;20047;-42
2023/01/24 13:05:45;;;;;;;4.97;4.47;;;20.10;36.40;;;;;;4996902;28;20050;-43
2023/01/24 13:08:22;;;;;;;6.80;4.82;;;20.30;36.00;;;;;;4985468;28;20153;-53
2023/01/24 13:10:58;;;;;;;6.40;5.80;;;20.50;35.60;;;;;;5002386;28;20049;-53
2023/01/24 13:13:30;;;;;;;7.00;4.45;;;20.70;35.40;;;;;;5002191;28;20042;-46
2023/01/24 13:16:11;;;;;;;7.35;5.53;;;21.00;35.40;;;;;;5002337;28;20594;-48
2023/01/24 13:18:51;;;;;;;6.57;4.90;;;21.10;34.90;;;;;;5001948;28;20115;-50
2023/01/24 13:21:28;;;;;;;5.03;4.35;;;21.20;35.20;;;;;;5001979;28;20057;-50
2023/01/24 13:24:07;;;;;;;10.15;4.55;;;21.40;35.50;;;;;;5002251;28;20996;-50
2023/01/24 13:27:07;;;;;;;9.48;4.30;;;21.50;35.50;;;;;;5002365;28;20179;-49
2023/01/24 13:30:11;;;;;;;8.20;5.20;;;21.60;35.60;;;;;;5001778;28;20128;-56
2023/01/24 13:32:40;;;;;;;5.68;4.03;;;21.70;35.80;;;;;;5002057;28;20065;-59
2023/01/24 13:35:17;;;;;;;5.65;3.75;;;21.80;36.00;;;;;;5001768;28;20050;-60
2023/01/24 13:37:51;;;;;;;6.78;4.95;;;21.90;35.90;;;;;;5002128;28;20056;-53
2023/01/24 13:40:30;;;;;;;8.38;4.40;;;22.00;35.80;;;;;;5002214;28;20046;-54
2023/01/24 13:42:58;;;;;;;7.05;4.35;;;22.20;35.70;;;;;;5027827;28;20505;-54
2023/01/24 13:46:00;;;;;;;9.82;4.68;;;22.20;35.70;;;;;;5063163;28;20115;-51
2023/01/24 13:48:55;;;;;;;7.35;5.10;;;22.40;35.40;;;;;;5041852;28;20371;-49
2023/01/24 13:51:43;;;;;;;7.80;5.60;;;22.40;35.00;;;;;;5044368;28;20052;-53